Time;durP1;ratioP1;P1;durP2;ratioP2;P2;SDS_P1;SDS_P2;PMS_P1;PMS_P2;Temp;Humidity;BMP_temperature;BMP_pressure;BME280_temperature;BME280_humidity;BME280_pressure;Samples;Min_cycle;Max_cycle;Signal;HPM_P1;HPM_P2
2021/06/08 00:00:21;;;;;;;15.43;11.15;;;13.30;94.10;;;;;;3586789;40;20621;-76
2021/06/08 00:02:51;;;;;;;17.10;12.88;;;13.30;93.50;;;;;;3577161;40;20067;-76
2021/06/08 00:05:18;;;;;;;17.55;13.05;;;13.30;93.60;;;;;;3586605;40;20045;-76
2021/06/08 00:07:45;;;;;;;16.13;12.02;;;13.30;93.60;;;;;;3586610;40;20098;-76
2021/06/08 00:10:12;;;;;;;18.00;13.57;;;13.20;93.70;;;;;;3586032;40;20049;-76
2021/06/08 00:12:38;;;;;;;19.65;13.43;;;13.20;94.00;;;;;;3585449;40;20282;-76
2021/06/08 00:15:06;;;;;;;21.30;14.05;;;13.20;93.80;;;;;;3585128;40;20068;-76
2021/06/08 00:17:32;;;;;;;16.20;14.00;;;13.20;94.00;;;;;;3586430;40;20052;-76
2021/06/08 00:19:58;;;;;;;19.02;12.98;;;13.20;94.00;;;;;;3585083;40;20044;-76
2021/06/08 00:22:26;;;;;;;23.50;14.10;;;13.10;94.40;;;;;;3586319;40;20049;-76
2021/06/08 00:24:52;;;;;;;19.88;13.88;;;13.00;94.10;;;;;;3586355;40;20041;-75
2021/06/08 00:27:18;;;;;;;21.80;14.05;;;13.00;94.40;;;;;;3585187;40;20036;-76
2021/06/08 00:29:44;;;;;;;15.90;11.25;;;13.00;93.90;;;;;;3586263;40;20120;-75
2021/06/08 00:32:10;;;;;;;16.83;11.73;;;12.90;93.70;;;;;;3586032;40;20066;-76
2021/06/08 00:34:37;;;;;;;16.45;12.00;;;12.90;94.40;;;;;;3585333;40;20052;-76
2021/06/08 00:37:09;;;;;;;16.08;11.55;;;12.90;94.10;;;;;;3586182;40;20052;-76
2021/06/08 00:39:35;;;;;;;21.08;14.30;;;12.90;93.90;;;;;;3586243;40;20122;-75
2021/06/08 00:42:12;;;;;;;19.83;12.48;;;12.90;94.00;;;;;;3586413;40;20376;-76
2021/06/08 00:44:39;;;;;;;21.17;14.50;;;12.80;93.90;;;;;;3586245;40;20076;-76
2021/06/08 00:47:05;;;;;;;23.77;14.32;;;12.90;94.30;;;;;;3584978;40;20123;-76
2021/06/08 00:49:32;;;;;;;22.92;14.88;;;12.80;94.40;;;;;;3586651;40;20362;-76
2021/06/08 00:51:58;;;;;;;20.30;12.88;;;12.80;94.60;;;;;;3586413;40;20103;-76
2021/06/08 00:54:24;;;;;;;14.85;11.80;;;12.70;95.00;;;;;;3575473;40;20044;-76
2021/06/08 00:56:50;;;;;;;16.40;12.02;;;12.80;94.20;;;;;;3586138;40;20044;-76
2021/06/08 00:59:17;;;;;;;18.27;12.15;;;12.80;94.20;;;;;;3586203;40;20040;-76
2021/06/08 01:01:43;;;;;;;19.27;12.48;;;12.80;93.90;;;;;;3586548;40;20378;-76
2021/06/08 01:04:10;;;;;;;19.80;12.57;;;12.80;94.50;;;;;;3586355;40;20047;-76
2021/06/08 01:06:38;;;;;;;16.90;11.27;;;12.70;94.20;;;;;;3586308;40;20040;-76
2021/06/08 01:09:08;;;;;;;18.60;12.00;;;12.70;93.90;;;;;;3586394;40;20331;-76
2021/06/08 01:11:35;;;;;;;19.67;11.70;;;12.70;93.90;;;;;;3586150;40;20036;-76
2021/06/08 01:14:01;;;;;;;18.42;12.65;;;12.70;94.30;;;;;;3586195;40;20067;-76
2021/06/08 01:16:28;;;;;;;20.85;13.02;;;12.70;94.30;;;;;;3586300;40;20040;-76
2021/06/08 01:18:56;;;;;;;21.10;14.57;;;12.70;93.90;;;;;;3586090;40;20682;-76
2021/06/08 01:21:22;;;;;;;20.15;13.30;;;12.70;94.20;;;;;;3586160;40;20040;-76
2021/06/08 01:23:48;;;;;;;19.80;13.38;;;12.70;94.40;;;;;;3585912;40;20063;-76
2021/06/08 01:26:14;;;;;;;16.52;11.70;;;12.80;94.00;;;;;;3585324;40;20434;-76
2021/06/08 01:28:41;;;;;;;20.60;12.82;;;12.70;94.10;;;;;;3585682;40;20051;-76
2021/06/08 01:31:13;;;;;;;17.25;12.25;;;12.70;94.00;;;;;;3585786;40;20042;-76
2021/06/08 01:33:41;;;;;;;21.83;14.00;;;12.70;93.80;;;;;;3586135;40;20358;-76
2021/06/08 01:36:11;;;;;;;24.30;14.35;;;12.70;93.80;;;;;;3586237;40;20059;-76
2021/06/08 01:38:40;;;;;;;21.65;15.07;;;12.70;93.90;;;;;;3586236;40;20033;-76
2021/06/08 01:41:07;;;;;;;24.33;15.38;;;12.70;93.80;;;;;;3585821;40;20036;-76
2021/06/08 01:43:33;;;;;;;23.77;14.00;;;12.60;94.30;;;;;;3585712;40;20052;-76
2021/06/08 01:45:59;;;;;;;20.83;12.13;;;12.60;94.60;;;;;;3585522;40;20048;-77
2021/06/08 01:48:24;;;;;;;17.90;12.23;;;12.50;94.70;;;;;;3585786;40;20338;-76
2021/06/08 01:50:51;;;;;;;19.92;12.90;;;12.50;94.40;;;;;;3585084;40;20049;-76
2021/06/08 01:53:42;;;;;;;22.17;13.57;;;12.50;94.10;;;;;;3586004;40;20326;-76
2021/06/08 01:56:12;;;;;;;21.00;13.80;;;12.60;94.70;;;;;;3585874;40;20412;-76
2021/06/08 01:58:44;;;;;;;21.25;12.50;;;12.50;95.00;;;;;;3584883;40;20309;-76
2021/06/08 02:01:21;;;;;;;22.60;14.07;;;12.50;94.50;;;;;;3585919;40;20025;-76
2021/06/08 02:04:01;;;;;;;18.77;11.85;;;12.50;94.30;;;;;;3585039;40;20040;-76
2021/06/08 02:06:34;;;;;;;19.92;13.43;;;12.50;94.40;;;;;;3586283;40;20040;-76
2021/06/08 02:09:25;;;;;;;22.52;13.52;;;12.50;94.60;;;;;;3587262;40;20098;-76
2021/06/08 02:12:19;;;;;;;16.95;11.10;;;12.50;94.70;;;;;;3580115;40;20043;-76
2021/06/08 02:15:04;;;;;;;18.20;12.27;;;12.50;94.90;;;;;;3586499;40;20036;-76
2021/06/08 02:17:59;;;;;;;15.77;9.60;;;12.50;94.40;;;;;;3587412;40;20044;-77
2021/06/08 02:20:29;;;;;;;19.45;11.10;;;12.50;94.20;;;;;;3586072;40;20037;-76
2021/06/08 02:22:59;;;;;;;14.65;9.55;;;12.60;94.50;;;;;;3586876;40;20035;-75
2021/06/08 02:25:28;;;;;;;14.65;9.25;;;12.50;94.30;;;;;;3587350;40;20052;-76
2021/06/08 02:27:58;;;;;;;14.25;10.10;;;12.60;94.20;;;;;;3586917;40;20149;-75
2021/06/08 02:30:25;;;;;;;15.50;9.45;;;12.60;94.10;;;;;;3586216;40;20121;-76
2021/06/08 02:32:53;;;;;;;15.10;8.52;;;12.60;94.00;;;;;;3586968;40;20033;-76
2021/06/08 02:35:21;;;;;;;11.23;8.18;;;12.70;93.90;;;;;;3586892;40;20060;-76
2021/06/08 02:37:58;;;;;;;14.40;9.43;;;12.70;93.70;;;;;;3586786;40;20409;-76
2021/06/08 02:40:25;;;;;;;13.13;8.68;;;12.70;93.80;;;;;;3587462;40;20095;-76
2021/06/08 02:42:51;;;;;;;11.90;8.38;;;12.70;93.80;;;;;;3586828;40;20129;-76
2021/06/08 02:45:19;;;;;;;11.93;8.85;;;12.70;93.80;;;;;;3586708;40;20268;-75
2021/06/08 02:47:50;;;;;;;11.95;9.02;;;12.70;93.70;;;;;;3585899;40;20040;-76
2021/06/08 02:50:17;;;;;;;20.75;10.70;;;12.70;93.60;;;;;;3586878;40;20048;-76
2021/06/08 02:52:45;;;;;;;22.05;13.55;;;12.80;94.60;;;;;;3586001;40;20052;-76
2021/06/08 02:55:13;;;;;;;24.83;14.10;;;12.70;94.20;;;;;;3586661;40;20040;-76
2021/06/08 02:57:39;;;;;;;20.75;12.70;;;12.60;94.20;;;;;;3586479;40;20048;-76
2021/06/08 03:00:08;;;;;;;23.27;13.43;;;12.50;94.70;;;;;;3586908;40;20043;-76
2021/06/08 03:02:39;;;;;;;16.95;9.98;;;12.50;94.80;;;;;;3587013;40;20349;-76
2021/06/08 03:05:12;;;;;;;14.55;9.68;;;12.50;94.80;;;;;;3586942;40;20331;-76
2021/06/08 03:07:40;;;;;;;15.23;9.85;;;12.40;94.80;;;;;;3586977;40;20033;-75
2021/06/08 03:10:11;;;;;;;12.93;8.88;;;12.40;94.60;;;;;;3586862;40;20051;-76
2021/06/08 03:12:52;;;;;;;16.38;11.02;;;12.50;94.50;;;;;;3586831;40;20072;-76
2021/06/08 03:15:20;;;;;;;10.13;7.65;;;12.40;94.90;;;;;;3586929;40;20075;-76
2021/06/08 03:17:46;;;;;;;11.30;7.65;;;12.40;94.40;;;;;;3586667;40;20507;-76
2021/06/08 03:20:23;;;;;;;13.93;8.85;;;12.50;94.30;;;;;;3584123;40;20218;-75
2021/06/08 03:22:52;;;;;;;14.73;10.23;;;12.50;94.30;;;;;;3586084;40;20044;-76
2021/06/08 03:25:20;;;;;;;17.73;10.77;;;12.60;94.10;;;;;;3586661;40;20082;-76
2021/06/08 03:27:48;;;;;;;17.80;10.75;;;12.70;94.70;;;;;;3585827;40;20040;-76
2021/06/08 03:30:14;;;;;;;17.50;10.10;;;12.60;94.80;;;;;;3586113;40;20041;-76
2021/06/08 03:32:42;;;;;;;14.32;9.38;;;12.60;94.80;;;;;;3586581;40;20145;-76
2021/06/08 03:35:10;;;;;;;18.65;8.32;;;12.60;94.90;;;;;;3576329;40;20048;-76
2021/06/08 03:37:37;;;;;;;10.27;8.07;;;12.60;95.20;;;;;;3583460;40;20259;-76
2021/06/08 03:40:04;;;;;;;11.43;8.02;;;12.60;94.50;;;;;;3585450;40;20040;-76
2021/06/08 03:42:31;;;;;;;12.13;8.23;;;12.60;94.60;;;;;;3586426;40;20055;-76
2021/06/08 03:44:57;;;;;;;16.25;8.63;;;12.70;94.40;;;;;;3586116;40;20055;-76
2021/06/08 03:47:24;;;;;;;12.18;8.48;;;12.70;95.90;;;;;;3586052;40;20117;-76
2021/06/08 03:49:53;;;;;;;9.15;6.80;;;12.60;94.80;;;;;;3586277;40;20271;-76
2021/06/08 03:52:20;;;;;;;12.82;7.90;;;12.60;94.60;;;;;;3584245;40;20037;-76
2021/06/08 03:54:46;;;;;;;13.70;8.52;;;12.70;94.60;;;;;;3585501;40;20033;-76
2021/06/08 03:57:18;;;;;;;17.45;9.30;;;12.70;94.60;;;;;;3586123;40;20041;-76
2021/06/08 03:59:46;;;;;;;16.35;10.07;;;12.70;94.70;;;;;;3586299;40;20139;-76
2021/06/08 04:02:12;;;;;;;12.23;8.50;;;12.70;95.40;;;;;;3586122;40;20032;-75
2021/06/08 04:04:38;;;;;;;15.32;9.07;;;12.60;95.50;;;;;;3586421;40;20033;-76
2021/06/08 04:07:04;;;;;;;11.27;7.72;;;12.50;95.40;;;;;;3585291;40;20177;-76
2021/06/08 04:09:29;;;;;;;9.98;6.90;;;12.40;95.50;;;;;;3586483;40;20056;-76
2021/06/08 04:11:56;;;;;;;12.05;6.97;;;12.40;95.10;;;;;;3586004;40;20043;-75
2021/06/08 04:14:23;;;;;;;13.05;7.72;;;12.50;95.20;;;;;;3585688;40;20200;-76
2021/06/08 04:16:49;;;;;;;11.15;7.85;;;12.60;95.40;;;;;;3586272;40;20076;-76
2021/06/08 04:19:15;;;;;;;15.93;7.22;;;12.60;95.70;;;;;;3585864;40;20048;-75
2021/06/08 04:21:43;;;;;;;7.63;5.32;;;12.60;96.00;;;;;;3586298;40;20040;-76
2021/06/08 04:24:10;;;;;;;11.05;6.80;;;12.60;95.10;;;;;;3586286;40;20040;-75
2021/06/08 04:26:37;;;;;;;12.00;7.53;;;12.60;95.00;;;;;;3586556;40;20048;-76
2021/06/08 04:29:03;;;;;;;11.68;7.35;;;12.60;94.80;;;;;;3585813;40;20050;-76
2021/06/08 04:31:33;;;;;;;10.90;7.43;;;12.60;95.40;;;;;;3585651;40;20035;-76
2021/06/08 04:33:59;;;;;;;10.43;6.80;;;12.60;95.70;;;;;;3585719;40;20125;-76
2021/06/08 04:36:25;;;;;;;13.18;7.75;;;12.60;95.40;;;;;;3586638;40;20056;-76
2021/06/08 04:38:52;;;;;;;9.80;6.63;;;12.60;95.30;;;;;;3586348;40;20040;-75
2021/06/08 04:41:19;;;;;;;11.65;7.88;;;12.60;95.20;;;;;;3586241;40;20044;-75
2021/06/08 04:43:44;;;;;;;8.77;6.70;;;12.60;95.60;;;;;;3586045;40;20091;-76
2021/06/08 04:46:13;;;;;;;17.10;6.57;;;12.60;95.40;;;;;;3585194;40;20626;-75
2021/06/08 04:48:44;;;;;;;11.98;7.05;;;12.60;95.60;;;;;;3586094;40;20052;-76
2021/06/08 04:51:30;;;;;;;13.45;7.70;;;12.60;95.40;;;;;;3580467;40;20025;-75
2021/06/08 04:54:09;;;;;;;11.30;7.07;;;12.60;95.50;;;;;;3585727;40;20048;-76
2021/06/08 04:56:36;;;;;;;13.40;7.55;;;12.60;95.40;;;;;;3586056;40;20141;-76
2021/06/08 04:59:02;;;;;;;19.33;7.93;;;12.70;95.70;;;;;;3585610;40;20345;-76
2021/06/08 05:01:38;;;;;;;10.27;7.13;;;12.60;96.00;;;;;;3585238;40;20052;-76
2021/06/08 05:04:11;;;;;;;8.57;5.82;;;12.60;95.60;;;;;;3585710;40;20652;-75
2021/06/08 05:06:41;;;;;;;8.90;6.38;;;12.60;95.40;;;;;;3585246;40;20064;-76
2021/06/08 05:09:13;;;;;;;20.95;8.63;;;12.70;95.40;;;;;;3585963;40;20251;-76
2021/06/08 05:11:44;;;;;;;14.30;7.57;;;12.80;95.40;;;;;;3585826;40;20052;-76
2021/06/08 05:14:13;;;;;;;15.32;7.30;;;12.90;95.50;;;;;;3582603;40;20327;-75
2021/06/08 05:16:44;;;;;;;14.60;8.18;;;12.90;95.40;;;;;;3586028;40;20036;-75
2021/06/08 05:19:14;;;;;;;9.02;6.15;;;12.90;95.50;;;;;;3585518;40;20235;-75
2021/06/08 05:21:51;;;;;;;7.80;6.68;;;12.90;95.40;;;;;;3585563;40;20044;-75
2021/06/08 05:24:18;;;;;;;7.78;5.25;;;13.00;95.30;;;;;;3585668;40;20123;-75
2021/06/08 05:26:48;;;;;;;8.77;5.72;;;13.10;95.30;;;;;;3584958;40;20105;-76
2021/06/08 05:29:19;;;;;;;7.40;5.63;;;13.20;95.40;;;;;;3585069;40;20040;-75
2021/06/08 05:31:46;;;;;;;6.75;5.32;;;13.10;95.30;;;;;;3584315;40;20123;-76
2021/06/08 05:34:14;;;;;;;8.45;6.00;;;13.10;95.50;;;;;;3584453;40;20052;-76
2021/06/08 05:36:41;;;;;;;6.93;4.93;;;13.10;95.20;;;;;;3576876;40;20326;-75
2021/06/08 05:39:09;;;;;;;6.70;5.18;;;13.20;95.40;;;;;;3585595;40;20048;-76
2021/06/08 05:41:38;;;;;;;6.38;4.93;;;13.30;95.30;;;;;;3584316;40;20030;-75
2021/06/08 05:44:10;;;;;;;8.15;4.95;;;13.30;95.30;;;;;;3584545;40;20044;-76
2021/06/08 05:46:37;;;;;;;7.97;6.18;;;13.20;94.90;;;;;;3585614;40;20054;-76
2021/06/08 05:49:06;;;;;;;10.40;5.75;;;13.10;95.00;;;;;;3585513;40;20043;-76
2021/06/08 05:51:51;;;;;;;8.02;5.05;;;13.20;95.00;;;;;;3585992;40;20043;-76
2021/06/08 05:54:18;;;;;;;7.65;5.57;;;13.20;95.00;;;;;;3585544;40;20044;-75
2021/06/08 05:56:45;;;;;;;11.02;6.72;;;13.30;95.00;;;;;;3585755;40;20041;-75
2021/06/08 05:59:15;;;;;;;9.05;6.15;;;13.30;95.10;;;;;;3585378;40;20040;-75
2021/06/08 06:01:41;;;;;;;11.20;6.93;;;13.40;95.00;;;;;;3585920;40;20036;-75
2021/06/08 06:04:11;;;;;;;14.88;9.02;;;13.40;95.10;;;;;;3585369;40;20032;-76
2021/06/08 06:06:39;;;;;;;14.70;8.63;;;13.50;95.20;;;;;;3585716;40;20040;-76
2021/06/08 06:09:06;;;;;;;10.82;8.18;;;13.40;95.80;;;;;;3581264;40;20484;-76
2021/06/08 06:11:32;;;;;;;11.57;7.78;;;13.40;95.40;;;;;;3585482;40;20043;-75
2021/06/08 06:14:02;;;;;;;12.30;8.20;;;13.30;95.20;;;;;;3585212;40;20056;-76
2021/06/08 06:16:37;;;;;;;13.02;8.35;;;13.30;95.40;;;;;;3585696;40;20052;-76
2021/06/08 06:19:05;;;;;;;10.82;7.13;;;13.40;95.70;;;;;;3582395;40;20126;-75
2021/06/08 06:21:56;;;;;;;10.05;7.38;;;13.50;95.60;;;;;;3584636;40;20045;-75
2021/06/08 06:24:23;;;;;;;10.80;7.18;;;13.60;95.40;;;;;;3585636;40;20036;-75
2021/06/08 06:26:52;;;;;;;7.47;5.90;;;13.70;95.40;;;;;;3585262;40;20044;-76
2021/06/08 06:29:24;;;;;;;8.75;7.07;;;13.80;95.00;;;;;;3585572;40;20055;-75
2021/06/08 06:32:08;;;;;;;8.27;6.57;;;13.80;95.00;;;;;;3583297;40;20052;-76
2021/06/08 06:34:34;;;;;;;9.02;5.85;;;13.90;94.90;;;;;;3585230;40;20097;-76
2021/06/08 06:37:24;;;;;;;8.80;6.97;;;13.90;95.00;;;;;;3584783;40;20048;-75
2021/06/08 06:39:52;;;;;;;6.75;6.07;;;14.00;95.00;;;;;;3585279;40;20049;-76
2021/06/08 06:42:23;;;;;;;11.05;7.40;;;14.20;94.90;;;;;;3584323;40;20036;-75
2021/06/08 06:44:49;;;;;;;11.13;7.13;;;14.30;94.80;;;;;;3585286;40;20327;-75
2021/06/08 06:47:17;;;;;;;8.45;6.72;;;14.50;94.80;;;;;;3585039;40;20037;-76
2021/06/08 06:49:44;;;;;;;9.32;7.88;;;14.50;94.40;;;;;;3585323;40;20050;-75
2021/06/08 06:52:12;;;;;;;11.50;9.48;;;14.50;94.40;;;;;;3585613;40;20154;-75
2021/06/08 06:54:39;;;;;;;13.25;9.95;;;14.50;94.20;;;;;;3586918;40;20058;-76
2021/06/08 06:57:10;;;;;;;9.18;7.55;;;14.30;94.40;;;;;;3585650;40;20036;-75
2021/06/08 06:59:39;;;;;;;11.55;8.40;;;14.30;94.60;;;;;;3586932;40;20045;-76
2021/06/08 07:02:12;;;;;;;10.25;7.95;;;14.30;94.70;;;;;;3586714;40;20036;-76
2021/06/08 07:04:40;;;;;;;9.70;7.80;;;14.30;94.70;;;;;;3586880;40;20040;-75
2021/06/08 07:07:09;;;;;;;11.18;8.07;;;14.50;94.80;;;;;;3586704;40;20095;-75
2021/06/08 07:09:39;;;;;;;9.55;8.30;;;14.70;94.80;;;;;;3586758;40;20028;-75
2021/06/08 07:12:05;;;;;;;10.90;8.77;;;14.80;94.10;;;;;;3585577;40;20036;-76
2021/06/08 07:14:32;;;;;;;10.20;9.05;;;14.80;94.20;;;;;;3587008;40;20039;-75
2021/06/08 07:17:00;;;;;;;8.90;7.97;;;14.80;93.90;;;;;;3586507;40;20129;-75
2021/06/08 07:19:27;;;;;;;12.13;8.65;;;14.70;94.00;;;;;;3586885;40;20226;-76
2021/06/08 07:21:53;;;;;;;9.82;8.35;;;14.80;94.20;;;;;;3586434;40;20076;-76
2021/06/08 07:24:32;;;;;;;10.60;8.27;;;14.80;94.00;;;;;;3586744;40;20040;-75
2021/06/08 07:27:07;;;;;;;8.90;8.00;;;14.70;94.00;;;;;;3586128;40;20046;-76
2021/06/08 07:29:47;;;;;;;11.25;7.53;;;14.70;94.40;;;;;;3586750;40;20032;-75
2021/06/08 07:32:23;;;;;;;7.63;6.82;;;14.90;94.40;;;;;;3586236;40;20052;-75
2021/06/08 07:35:05;;;;;;;9.80;7.43;;;15.10;94.40;;;;;;3586458;40;20044;-76
2021/06/08 07:37:35;;;;;;;7.55;6.28;;;15.20;93.70;;;;;;3585738;40;20048;-75
2021/06/08 07:40:07;;;;;;;8.32;5.75;;;15.20;93.90;;;;;;3586428;40;20050;-76
2021/06/08 07:42:41;;;;;;;;;;;15.30;93.70;;;;;;3587187;40;20149;-76
2021/06/08 07:45:19;;;;;;;7.25;5.70;;;15.30;93.10;;;;;;3586293;40;20228;-75
2021/06/08 07:48:07;;;;;;;7.18;5.50;;;15.30;93.60;;;;;;3584706;40;20102;-75
2021/06/08 07:50:49;;;;;;;8.73;5.50;;;15.40;93.80;;;;;;3586517;40;20227;-76
2021/06/08 07:53:19;;;;;;;8.65;6.75;;;15.60;93.60;;;;;;3582344;40;20033;-75
2021/06/08 07:55:48;;;;;;;5.53;4.38;;;15.50;93.20;;;;;;3583300;40;20036;-75
2021/06/08 07:58:22;;;;;;;5.20;4.70;;;15.70;93.80;;;;;;3585636;40;20587;-75
2021/06/08 08:00:50;;;;;;;5.90;4.50;;;16.00;94.10;;;;;;3586526;40;20365;-75
2021/06/08 08:03:32;;;;;;;7.72;5.20;;;16.40;93.70;;;;;;3586039;40;20033;-75
2021/06/08 08:06:04;;;;;;;6.43;5.78;;;16.60;93.30;;;;;;3586493;40;20273;-75
2021/06/08 08:08:37;;;;;;;6.72;6.03;;;16.70;92.90;;;;;;3586603;40;20374;-75
2021/06/08 08:11:14;;;;;;;6.50;5.88;;;16.60;92.70;;;;;;3586157;40;20056;-75
2021/06/08 08:13:48;;;;;;;;;;;16.60;92.40;;;;;;3587319;40;20146;-75
2021/06/08 08:16:33;;;;;;;6.53;5.40;;;16.60;90.00;;;;;;3585597;40;19925;-75
2021/06/08 08:19:01;;;;;;;5.43;4.93;;;16.60;92.30;;;;;;3586278;40;20037;-75
2021/06/08 08:21:41;;;;;;;7.53;6.63;;;16.80;92.70;;;;;;3586369;40;20048;-75
2021/06/08 08:24:07;;;;;;;7.10;6.28;;;17.40;92.40;;;;;;3586193;40;20044;-75
2021/06/08 08:26:55;;;;;;;6.10;5.50;;;17.80;90.90;;;;;;3578383;40;20136;-75
2021/06/08 08:29:23;;;;;;;6.10;5.30;;;17.80;91.00;;;;;;3585569;40;20044;-76
2021/06/08 08:31:50;;;;;;;6.72;5.40;;;18.00;91.00;;;;;;3586242;40;20107;-76
2021/06/08 08:34:18;;;;;;;5.05;4.50;;;18.50;91.30;;;;;;3585696;40;20041;-76
2021/06/08 08:36:44;;;;;;;6.70;5.72;;;19.10;91.50;;;;;;3586606;40;20319;-76
2021/06/08 08:39:11;;;;;;;6.70;6.05;;;19.60;91.20;;;;;;3585028;40;20032;-75
2021/06/08 08:41:38;;;;;;;6.95;6.25;;;19.70;90.00;;;;;;3585962;40;20048;-75
2021/06/08 08:44:11;;;;;;;6.60;6.00;;;19.50;90.10;;;;;;3584993;40;20245;-76
2021/06/08 08:46:57;;;;;;;7.10;6.45;;;19.60;89.70;;;;;;3584934;40;20036;-75
2021/06/08 08:49:43;;;;;;;8.23;7.30;;;20.00;89.00;;;;;;3584790;40;20234;-75
2021/06/08 08:52:11;;;;;;;8.20;7.40;;;20.30;87.00;;;;;;3585846;40;20040;-76
2021/06/08 08:54:53;;;;;;;6.80;6.10;;;20.30;84.20;;;;;;3586248;40;20025;-76
2021/06/08 08:57:19;;;;;;;8.75;6.43;;;20.10;86.20;;;;;;3584834;40;20076;-76
2021/06/08 09:00:03;;;;;;;5.97;5.35;;;20.10;86.60;;;;;;3583706;40;20497;-75
2021/06/08 09:02:45;;;;;;;7.65;6.47;;;20.00;86.90;;;;;;3586199;40;20137;-75
2021/06/08 09:05:12;;;;;;;8.10;7.28;;;20.10;85.90;;;;;;3585610;40;20047;-76
2021/06/08 09:07:38;;;;;;;7.30;6.60;;;20.00;86.60;;;;;;3585439;40;20036;-76
2021/06/08 09:10:08;;;;;;;7.88;6.63;;;19.80;80.10;;;;;;3585568;40;20076;-76
2021/06/08 09:12:36;;;;;;;7.28;6.53;;;19.60;85.30;;;;;;3586074;40;20045;-76
2021/06/08 09:15:07;;;;;;;7.13;6.25;;;19.40;84.00;;;;;;3584591;40;20047;-76
2021/06/08 09:17:39;;;;;;;8.05;5.60;;;19.30;84.20;;;;;;3586356;40;20048;-76
2021/06/08 09:20:11;;;;;;;8.40;7.45;;;19.40;87.00;;;;;;3585406;40;20048;-76
2021/06/08 09:22:54;;;;;;;7.68;6.82;;;19.70;83.40;;;;;;3585063;40;20041;-76
2021/06/08 09:25:37;;;;;;;9.27;8.32;;;19.60;83.10;;;;;;3586021;40;20044;-76
2021/06/08 09:28:19;;;;;;;7.78;7.07;;;19.50;82.40;;;;;;3585836;40;20335;-76
2021/06/08 09:31:03;;;;;;;7.18;6.47;;;19.40;79.40;;;;;;3586290;40;20432;-76
2021/06/08 09:33:32;;;;;;;;;;;19.10;85.60;;;;;;3575928;40;20121;-76
2021/06/08 09:36:10;;;;;;;6.75;5.78;;;19.10;81.60;;;;;;3583190;40;20201;-75
2021/06/08 09:38:50;;;;;;;7.68;6.70;;;19.30;85.10;;;;;;3585175;40;20059;-76
2021/06/08 09:41:41;;;;;;;8.07;6.30;;;19.50;81.70;;;;;;3585172;40;20200;-76
2021/06/08 09:44:10;;;;;;;8.32;7.60;;;19.40;79.20;;;;;;3584530;40;20052;-75
2021/06/08 09:46:54;;;;;;;6.13;5.53;;;19.30;84.70;;;;;;3585858;40;20322;-76
2021/06/08 09:49:29;;;;;;;5.80;5.30;;;19.30;81.30;;;;;;3585809;40;20071;-75
2021/06/08 09:51:59;;;;;;;7.00;6.30;;;19.60;85.60;;;;;;3584962;40;20064;-75
2021/06/08 09:54:47;;;;;;;8.35;7.55;;;20.20;85.70;;;;;;3585824;40;20120;-76
2021/06/08 09:57:15;;;;;;;6.97;6.28;;;20.60;74.60;;;;;;3581825;40;20041;-76
2021/06/08 09:59:49;;;;;;;6.75;6.15;;;20.60;83.60;;;;;;3585772;40;20056;-76
2021/06/08 10:02:47;;;;;;;8.73;7.78;;;20.80;79.20;;;;;;3585285;40;20309;-76
2021/06/08 10:05:16;;;;;;;7.93;7.20;;;20.60;77.60;;;;;;3585206;40;20044;-76
2021/06/08 10:07:42;;;;;;;7.40;6.65;;;20.20;79.40;;;;;;3585691;40;20133;-76
2021/06/08 10:10:09;;;;;;;6.50;5.90;;;20.20;84.70;;;;;;3585104;40;20101;-76
2021/06/08 10:12:36;;;;;;;7.20;5.97;;;20.60;85.10;;;;;;3584756;40;20044;-76
2021/06/08 10:15:10;;;;;;;7.85;7.15;;;21.10;83.90;;;;;;3585213;40;20134;-76
2021/06/08 10:17:38;;;;;;;5.20;4.80;;;21.40;79.60;;;;;;3582449;40;20048;-76
2021/06/08 10:20:17;;;;;;;8.00;7.20;;;21.60;82.10;;;;;;3585043;40;20360;-76
2021/06/08 10:22:44;;;;;;;9.40;8.50;;;21.80;72.60;;;;;;3583157;40;20321;-76
2021/06/08 10:25:10;;;;;;;8.65;7.95;;;21.70;76.00;;;;;;3585231;40;20036;-76
2021/06/08 10:27:36;;;;;;;8.75;8.00;;;21.60;79.30;;;;;;3585341;40;20048;-76
2021/06/08 10:30:03;;;;;;;8.07;7.35;;;21.50;78.10;;;;;;3585918;40;20242;-76
2021/06/08 10:32:29;;;;;;;7.65;6.95;;;21.40;78.50;;;;;;3587173;40;20044;-76
2021/06/08 10:34:57;;;;;;;8.23;7.35;;;21.40;79.80;;;;;;3585343;40;20036;-77
2021/06/08 10:37:24;;;;;;;9.63;8.07;;;21.30;77.30;;;;;;3587018;40;20051;-76
2021/06/08 10:39:50;;;;;;;8.90;8.00;;;21.00;77.80;;;;;;3586288;40;20050;-77
2021/06/08 10:42:16;;;;;;;9.45;7.75;;;21.00;78.70;;;;;;3586956;40;20060;-77
2021/06/08 10:44:42;;;;;;;8.98;8.18;;;21.00;79.30;;;;;;3578216;40;20040;-77
2021/06/08 10:47:33;;;;;;;8.35;7.65;;;20.90;79.00;;;;;;3586589;40;20330;-76
2021/06/08 10:49:59;;;;;;;7.47;6.78;;;21.00;76.80;;;;;;3586822;40;20060;-76
2021/06/08 10:52:27;;;;;;;7.57;6.70;;;21.20;79.90;;;;;;3587077;40;20044;-76
2021/06/08 10:54:54;;;;;;;8.15;7.47;;;21.40;78.90;;;;;;3586007;40;20505;-77
2021/06/08 10:57:21;;;;;;;7.07;6.45;;;21.50;78.30;;;;;;3586709;40;20052;-76
2021/06/08 10:59:49;;;;;;;8.77;7.97;;;21.60;77.80;;;;;;3587112;40;20055;-77
2021/06/08 11:02:46;;;;;;;7.90;7.10;;;21.50;75.50;;;;;;3586556;40;20673;-77
2021/06/08 11:05:16;;;;;;;7.72;7.03;;;21.50;73.20;;;;;;3585935;40;20044;-77
2021/06/08 11:07:43;;;;;;;9.32;8.43;;;21.70;74.90;;;;;;3586064;40;20041;-76
2021/06/08 11:10:26;;;;;;;7.78;7.07;;;21.90;76.20;;;;;;3585455;40;20044;-76
2021/06/08 11:13:07;;;;;;;7.20;6.50;;;22.10;74.70;;;;;;3586933;40;20036;-76
2021/06/08 11:15:35;;;;;;;8.02;7.32;;;22.30;74.80;;;;;;3585859;40;20126;-76
2021/06/08 11:18:21;;;;;;;7.75;6.95;;;22.50;76.00;;;;;;3586716;40;20075;-76
2021/06/08 11:21:06;;;;;;;8.68;7.88;;;22.70;71.70;;;;;;3586563;40;20072;-76
2021/06/08 11:23:43;;;;;;;8.00;7.25;;;22.70;71.50;;;;;;3586612;40;20351;-76
2021/06/08 11:26:17;;;;;;;8.38;7.50;;;22.60;73.70;;;;;;3586354;40;20036;-76
2021/06/08 11:28:49;;;;;;;7.93;7.13;;;22.70;73.50;;;;;;3586873;40;20044;-76
2021/06/08 11:31:17;;;;;;;9.52;8.55;;;22.80;70.70;;;;;;3586287;40;20360;-77
2021/06/08 11:33:47;;;;;;;9.35;8.48;;;22.80;75.40;;;;;;3584776;40;20224;-76
2021/06/08 11:36:19;;;;;;;10.75;9.75;;;23.00;75.10;;;;;;3577202;40;20032;-76
2021/06/08 11:38:51;;;;;;;9.95;9.05;;;23.10;73.30;;;;;;3586146;40;20048;-76
2021/06/08 11:41:18;;;;;;;8.65;7.85;;;23.20;74.40;;;;;;3583298;40;20354;-76
2021/06/08 11:44:00;;;;;;;9.32;8.43;;;23.50;75.60;;;;;;3586820;40;20097;-76
2021/06/08 11:46:34;;;;;;;9.63;7.25;;;23.90;73.00;;;;;;3585637;40;20048;-76
2021/06/08 11:49:28;;;;;;;8.07;7.28;;;24.20;72.10;;;;;;3586323;40;20056;-76
2021/06/08 11:52:08;;;;;;;8.20;7.50;;;24.40;67.80;;;;;;3582741;40;20333;-76
2021/06/08 11:54:39;;;;;;;9.88;6.95;;;24.70;70.50;;;;;;3586666;40;20264;-76
2021/06/08 11:57:11;;;;;;;7.03;6.35;;;24.60;71.00;;;;;;3586373;40;20051;-77
2021/06/08 11:59:46;;;;;;;7.22;6.43;;;24.30;70.30;;;;;;3586465;40;20040;-76
2021/06/08 12:02:43;;;;;;;6.13;5.20;;;24.00;62.80;;;;;;3586133;40;20224;-77
2021/06/08 12:05:23;;;;;;;5.70;4.85;;;23.80;67.30;;;;;;3585385;40;20333;-77
2021/06/08 12:07:57;;;;;;;3.42;3.13;;;23.70;68.10;;;;;;3586580;40;20045;-76
2021/06/08 12:10:27;;;;;;;3.97;2.13;;;23.90;69.70;;;;;;3584265;40;20036;-76
2021/06/08 12:12:54;;;;;;;3.38;3.00;;;24.20;68.90;;;;;;3586200;40;20153;-76
2021/06/08 12:15:23;;;;;;;4.20;3.90;;;24.40;68.30;;;;;;3583075;40;20059;-77
2021/06/08 12:18:00;;;;;;;6.53;3.42;;;24.30;61.60;;;;;;3586408;40;20048;-76
2021/06/08 12:20:37;;;;;;;2.22;1.88;;;23.80;63.00;;;;;;3586156;40;20063;-76
2021/06/08 12:23:03;;;;;;;3.08;2.38;;;23.60;67.80;;;;;;3586035;40;20042;-76
2021/06/08 12:25:30;;;;;;;3.72;2.90;;;23.80;67.70;;;;;;3586183;40;20250;-76
2021/06/08 12:27:56;;;;;;;3.72;2.33;;;23.70;65.40;;;;;;3585030;40;20048;-77
2021/06/08 12:30:29;;;;;;;3.05;2.80;;;23.50;67.30;;;;;;3585335;40;20040;-77
2021/06/08 12:32:57;;;;;;;4.60;2.63;;;23.60;64.70;;;;;;3586196;40;20126;-77
2021/06/08 12:35:26;;;;;;;3.03;2.55;;;23.20;62.90;;;;;;3585124;40;20040;-76
2021/06/08 12:38:05;;;;;;;4.78;4.35;;;23.00;65.40;;;;;;3583377;40;20044;-76
2021/06/08 12:40:32;;;;;;;4.18;3.80;;;22.80;66.70;;;;;;3586401;40;20060;-76
2021/06/08 12:43:00;;;;;;;3.90;3.53;;;22.50;67.30;;;;;;3586264;40;20055;-77
2021/06/08 12:45:26;;;;;;;4.88;4.47;;;22.50;67.70;;;;;;3585976;40;20365;-77
2021/06/08 12:47:52;;;;;;;6.45;4.25;;;22.40;68.60;;;;;;3582953;40;20044;-77
2021/06/08 12:50:31;;;;;;;2.78;2.55;;;22.50;69.30;;;;;;3585647;40;20043;-76
2021/06/08 12:53:05;;;;;;;2.75;2.42;;;22.90;69.60;;;;;;3586085;40;20264;-76
2021/06/08 12:55:33;;;;;;;4.40;2.60;;;23.50;68.90;;;;;;3584866;40;20255;-77
2021/06/08 12:58:02;;;;;;;3.35;2.67;;;23.90;67.80;;;;;;3585478;40;20040;-77
2021/06/08 13:00:34;;;;;;;2.80;2.13;;;24.00;67.60;;;;;;3586126;40;20141;-77